createdAt,value
2018-03-17T00:02:26.679Z,7.13
2018-03-17T00:04:55.152Z,8.80
2018-03-17T00:07:23.531Z,8.00
2018-03-17T00:09:51.855Z,8.07
2018-03-17T00:12:20.175Z,7.63
2018-03-17T00:14:48.482Z,6.97
2018-03-17T00:17:16.810Z,9.27
2018-03-17T00:19:45.212Z,7.27
2018-03-17T00:22:13.612Z,7.17
2018-03-17T00:24:41.963Z,7.93
2018-03-17T00:27:10.346Z,7.60
2018-03-17T00:29:38.723Z,8.43
2018-03-17T00:32:07.050Z,8.70
2018-03-17T00:34:35.366Z,8.07
2018-03-17T00:37:03.723Z,9.13
2018-03-17T00:39:32.046Z,8.40
2018-03-17T00:42:00.374Z,7.10
2018-03-17T00:44:28.703Z,8.90
2018-03-17T00:46:57.068Z,9.07
2018-03-17T00:49:25.392Z,9.00
2018-03-17T00:51:53.695Z,9.17
2018-03-17T00:54:22.018Z,10.27
2018-03-17T00:56:50.342Z,9.00
2018-03-17T00:59:18.758Z,9.57
2018-03-17T01:01:47.137Z,9.97
2018-03-17T01:04:15.522Z,10.10
2018-03-17T01:06:43.894Z,9.33
2018-03-17T01:09:12.210Z,9.60
2018-03-17T01:11:40.544Z,9.43
2018-03-17T01:14:08.856Z,9.73
2018-03-17T01:16:37.183Z,9.33
2018-03-17T01:19:05.503Z,9.47
2018-03-17T01:21:33.818Z,8.90
2018-03-17T01:24:02.239Z,8.33
2018-03-17T01:26:30.542Z,8.50
2018-03-17T01:28:58.866Z,7.80
2018-03-17T01:31:27.178Z,8.80
2018-03-17T01:33:55.490Z,7.30
2018-03-17T01:36:23.816Z,8.57
2018-03-17T01:38:52.186Z,9.03
2018-03-17T01:41:20.584Z,8.33
2018-03-17T01:43:48.942Z,9.20
2018-03-17T01:46:17.258Z,9.23
2018-03-17T01:48:45.595Z,9.90
2018-03-17T01:51:13.885Z,9.23
2018-03-17T01:53:42.215Z,9.40
2018-03-17T01:56:10.532Z,9.30
2018-03-17T01:58:38.919Z,8.90
2018-03-17T02:01:07.211Z,8.97
2018-03-17T02:03:35.575Z,12.97
2018-03-17T02:06:03.890Z,9.93
2018-03-17T02:08:32.215Z,9.40
2018-03-17T02:11:00.591Z,9.03
2018-03-17T02:13:28.971Z,9.37
2018-03-17T02:15:57.302Z,10.33
2018-03-17T02:18:25.622Z,9.13
2018-03-17T02:20:53.994Z,9.57
2018-03-17T02:23:22.390Z,9.70
2018-03-17T02:25:50.764Z,10.47
2018-03-17T02:28:19.085Z,10.10
2018-03-17T02:30:47.516Z,10.70
2018-03-17T02:33:15.895Z,10.10
2018-03-17T02:35:44.232Z,9.60
2018-03-17T02:38:12.554Z,9.80
2018-03-17T02:40:41.770Z,11.53
2018-03-17T02:43:10.092Z,11.30
2018-03-17T02:45:38.505Z,11.03
2018-03-17T02:48:06.896Z,10.60
2018-03-17T02:50:35.228Z,9.63
2018-03-17T02:53:03.567Z,10.50
2018-03-17T02:55:31.895Z,10.27
2018-03-17T02:58:01.197Z,11.30
2018-03-17T03:00:29.599Z,9.80
2018-03-17T03:02:58.087Z,10.40
2018-03-17T03:05:27.360Z,11.57
2018-03-17T03:07:55.871Z,11.63
2018-03-17T03:10:24.183Z,9.97
2018-03-17T03:12:52.523Z,10.70
2018-03-17T03:15:20.896Z,10.93
2018-03-17T03:17:49.226Z,9.50
2018-03-17T03:20:17.625Z,9.83
2018-03-17T03:22:46.018Z,9.30
2018-03-17T03:25:14.404Z,8.97
2018-03-17T03:27:42.730Z,9.90
2018-03-17T03:30:11.045Z,9.90
2018-03-17T03:32:39.381Z,9.37
2018-03-17T03:35:07.735Z,10.40
2018-03-17T03:37:36.035Z,8.63
2018-03-17T03:40:04.356Z,8.17
2018-03-17T03:42:32.708Z,9.43
2018-03-17T03:45:01.015Z,8.60
2018-03-17T03:47:29.367Z,10.27
2018-03-17T03:49:57.678Z,9.00
2018-03-17T03:52:26.057Z,8.87
2018-03-17T03:54:54.429Z,8.37
2018-03-17T03:57:22.778Z,9.73
2018-03-17T03:59:51.083Z,9.83
2018-03-17T04:02:19.463Z,9.50
2018-03-17T04:04:47.797Z,8.87
2018-03-17T04:07:16.118Z,8.50
2018-03-17T04:09:44.500Z,8.13
2018-03-17T04:12:12.880Z,8.27
2018-03-17T04:14:41.262Z,7.67
2018-03-17T04:17:09.603Z,7.80
2018-03-17T04:19:37.942Z,8.10
2018-03-17T04:22:06.258Z,8.27
2018-03-17T04:24:34.590Z,8.70
2018-03-17T04:27:02.950Z,8.10
2018-03-17T04:29:31.279Z,8.30
2018-03-17T04:31:59.586Z,8.70
2018-03-17T04:34:27.910Z,7.70
2018-03-17T04:36:57.285Z,7.70
2018-03-17T04:39:25.614Z,7.50
2018-03-17T04:41:53.931Z,7.70
2018-03-17T04:44:22.251Z,7.70
2018-03-17T04:46:50.598Z,7.00
2018-03-17T04:49:18.922Z,7.80
2018-03-17T04:51:47.293Z,7.60
2018-03-17T04:54:15.606Z,8.40
2018-03-17T04:56:43.922Z,7.50
2018-03-17T04:59:12.269Z,8.17
2018-03-17T05:01:40.658Z,8.40
2018-03-17T05:04:08.987Z,9.07
2018-03-17T05:06:37.314Z,7.63
2018-03-17T05:09:05.653Z,7.43
2018-03-17T05:11:33.975Z,11.50
2018-03-17T05:14:02.334Z,12.50
2018-03-17T05:16:30.712Z,8.50
2018-03-17T05:18:59.091Z,7.70
2018-03-17T05:21:27.470Z,7.47
2018-03-17T05:23:55.799Z,8.00
2018-03-17T05:26:24.129Z,9.60
2018-03-17T05:28:52.451Z,8.50
2018-03-17T05:31:20.894Z,8.57
2018-03-17T05:33:49.264Z,7.83
2018-03-17T05:36:17.582Z,9.30
2018-03-17T05:38:45.901Z,9.20
2018-03-17T05:41:14.294Z,8.17
2018-03-17T05:43:42.603Z,8.33
2018-03-17T05:46:10.930Z,6.80
2018-03-17T05:48:39.246Z,7.07
2018-03-17T05:51:07.700Z,7.60
2018-03-17T05:53:36.008Z,7.13
2018-03-17T05:56:04.362Z,7.80
2018-03-17T05:58:32.715Z,8.00
2018-03-17T06:01:01.864Z,8.37
2018-03-17T06:03:30.218Z,9.63
2018-03-17T06:05:58.535Z,12.40
2018-03-17T06:08:26.967Z,11.67
2018-03-17T06:10:55.279Z,13.67
2018-03-17T06:13:23.610Z,14.20
2018-03-17T06:16:03.875Z,14.90
2018-03-17T06:18:32.218Z,14.90
2018-03-17T06:21:00.538Z,15.37
2018-03-17T06:23:28.880Z,14.23
2018-03-17T06:25:57.214Z,14.60
2018-03-17T06:28:25.560Z,14.77
2018-03-17T06:30:53.884Z,12.53
2018-03-17T06:33:22.223Z,13.83
2018-03-17T06:35:50.563Z,14.10
2018-03-17T06:38:18.971Z,13.67
2018-03-17T06:40:47.385Z,15.17
2018-03-17T06:43:15.703Z,14.73
2018-03-17T06:45:44.044Z,14.43
2018-03-17T06:48:12.383Z,15.77
2018-03-17T06:50:40.712Z,15.37
2018-03-17T06:53:09.027Z,15.73
2018-03-17T06:55:37.414Z,14.27
2018-03-17T06:58:05.810Z,14.87
2018-03-17T07:00:34.156Z,15.80
2018-03-17T07:03:02.550Z,16.33
2018-03-17T07:05:30.903Z,19.70
2018-03-17T07:08:00.202Z,18.13
2018-03-17T07:10:28.607Z,21.23
2018-03-17T07:12:56.942Z,19.20
2018-03-17T07:15:25.371Z,18.97
2018-03-17T07:17:53.704Z,19.10
2018-03-17T07:20:22.044Z,19.03
2018-03-17T07:22:50.425Z,19.10
2018-03-17T07:25:18.814Z,19.80
2018-03-17T07:27:47.083Z,18.87
2018-03-17T07:30:15.423Z,19.80
2018-03-17T07:32:43.751Z,20.13
2018-03-17T07:35:12.083Z,20.63
2018-03-17T07:37:40.411Z,18.83
2018-03-17T07:40:08.751Z,20.10
2018-03-17T07:42:37.083Z,20.93
2018-03-17T07:45:05.426Z,20.07
2018-03-17T07:47:33.738Z,21.27
2018-03-17T07:50:02.154Z,21.00
2018-03-17T07:52:30.500Z,21.60
2018-03-17T07:54:59.824Z,23.27
2018-03-17T07:57:28.137Z,22.87
2018-03-17T07:59:56.489Z,21.73
2018-03-17T08:02:24.904Z,25.00
2018-03-17T08:04:53.251Z,23.20
2018-03-17T08:07:21.728Z,25.27
2018-03-17T08:09:50.058Z,23.80
2018-03-17T08:12:18.500Z,24.43
2018-03-17T08:14:46.913Z,24.10
2018-03-17T08:17:15.251Z,25.67
2018-03-17T08:19:43.570Z,26.80
2018-03-17T08:22:11.915Z,26.97
2018-03-17T08:24:40.231Z,27.00
2018-03-17T08:27:08.652Z,25.53
2018-03-17T08:29:36.979Z,25.53
2018-03-17T08:32:05.308Z,23.00
2018-03-17T08:34:33.634Z,27.40
2018-03-17T08:37:02.062Z,25.33
2018-03-17T08:39:30.407Z,26.37
2018-03-17T08:41:58.745Z,23.37
2018-03-17T08:44:27.054Z,22.90
2018-03-17T08:46:55.482Z,25.07
2018-03-17T08:49:23.800Z,24.50
2018-03-17T08:51:52.135Z,23.83
2018-03-17T08:54:20.507Z,23.13
2018-03-17T08:56:48.863Z,21.57
2018-03-17T08:59:17.367Z,23.60
2018-03-17T09:01:45.699Z,24.50
2018-03-17T09:04:14.021Z,23.10
2018-03-17T09:06:42.407Z,25.03
2018-03-17T09:09:10.795Z,24.60
2018-03-17T09:11:39.131Z,24.40
2018-03-17T09:14:07.561Z,24.00
2018-03-17T09:16:35.895Z,24.03
2018-03-17T09:19:04.298Z,23.10
2018-03-17T09:21:32.642Z,24.37
2018-03-17T09:24:00.980Z,24.90
2018-03-17T09:26:29.294Z,23.73
2018-03-17T09:28:57.624Z,23.90
2018-03-17T09:31:25.960Z,24.37
2018-03-17T09:33:54.287Z,23.00
2018-03-17T09:36:22.608Z,24.70
2018-03-17T09:38:50.976Z,23.27
2018-03-17T09:41:19.315Z,22.17
2018-03-17T09:43:47.659Z,23.93
2018-03-17T09:46:16.039Z,24.80
2018-03-17T09:48:44.434Z,23.67
2018-03-17T09:51:12.798Z,23.63
2018-03-17T09:53:41.174Z,23.50
2018-03-17T09:56:09.495Z,21.80
2018-03-17T09:58:37.906Z,24.93
2018-03-17T10:01:06.218Z,24.80
2018-03-17T10:03:34.617Z,25.27
2018-03-17T10:06:02.957Z,24.27
2018-03-17T10:08:31.298Z,26.73
2018-03-17T10:10:59.617Z,26.47
2018-03-17T10:13:28.004Z,26.57
2018-03-17T10:15:57.336Z,26.10
2018-03-17T10:18:25.686Z,25.60
2018-03-17T10:20:54.052Z,29.70
2018-03-17T10:23:22.398Z,29.97
2018-03-17T10:25:50.732Z,29.07
2018-03-17T10:28:19.082Z,29.40
2018-03-17T10:30:47.407Z,29.03
2018-03-17T10:33:15.842Z,30.53
2018-03-17T10:35:44.225Z,29.33
2018-03-17T10:38:12.589Z,33.33
2018-03-17T10:40:40.917Z,30.67
2018-03-17T10:43:09.248Z,31.43
2018-03-17T10:45:37.590Z,31.10
2018-03-17T10:48:05.929Z,34.90
2018-03-17T10:50:34.286Z,35.27
2018-03-17T10:53:02.629Z,37.03
2018-03-17T10:55:31.046Z,36.27
2018-03-17T10:57:59.379Z,37.07
2018-03-17T11:00:27.724Z,36.63
2018-03-17T11:02:56.039Z,37.00
2018-03-17T11:05:24.715Z,38.07
2018-03-17T11:07:53.035Z,37.90
2018-03-17T11:10:21.458Z,38.20
2018-03-17T11:12:49.830Z,37.37
2018-03-17T11:15:18.155Z,39.37
2018-03-17T11:17:46.510Z,37.73
2018-03-17T11:20:14.842Z,34.50
2018-03-17T11:22:43.168Z,36.93
2018-03-17T11:25:11.502Z,36.03
2018-03-17T11:27:39.817Z,35.60
2018-03-17T11:30:08.256Z,33.47
2018-03-17T11:32:36.622Z,34.10
2018-03-17T11:35:04.983Z,34.53
2018-03-17T11:37:33.311Z,34.20
2018-03-17T11:40:01.637Z,34.27
2018-03-17T11:42:29.985Z,33.53
2018-03-17T11:44:58.403Z,36.77
2018-03-17T11:47:26.726Z,35.30
2018-03-17T11:49:55.054Z,35.67
2018-03-17T11:52:23.400Z,35.20
2018-03-17T11:54:51.758Z,35.53
2018-03-17T11:57:20.096Z,35.13
2018-03-17T11:59:48.425Z,35.67
2018-03-17T12:02:16.748Z,35.30
2018-03-17T12:04:45.102Z,33.57
2018-03-17T12:07:13.448Z,33.90
2018-03-17T12:09:41.816Z,33.53
2018-03-17T12:12:10.195Z,32.53
2018-03-17T12:14:38.531Z,33.13
2018-03-17T12:17:07.643Z,32.77
2018-03-17T12:19:35.959Z,29.87
2018-03-17T12:22:04.391Z,30.43
2018-03-17T12:24:32.771Z,29.17
2018-03-17T12:27:01.171Z,32.33
2018-03-17T12:29:29.532Z,31.00
2018-03-17T12:31:57.907Z,28.67
2018-03-17T12:34:26.239Z,29.53
2018-03-17T12:36:54.687Z,29.07
2018-03-17T12:39:23.001Z,29.20
2018-03-17T12:41:51.421Z,31.50
2018-03-17T12:44:19.757Z,30.37
2018-03-17T12:46:48.165Z,30.77
2018-03-17T12:49:16.550Z,31.50
2018-03-17T12:51:44.940Z,29.90
2018-03-17T12:54:13.300Z,31.10
2018-03-17T12:56:41.640Z,30.57
2018-03-17T12:59:11.055Z,28.83
2018-03-17T13:01:39.395Z,31.40
2018-03-17T13:04:07.867Z,30.17
2018-03-17T13:06:36.204Z,29.03
2018-03-17T13:09:04.570Z,28.40
2018-03-17T13:11:33.563Z,29.13
2018-03-17T13:14:01.884Z,28.37
2018-03-17T13:16:30.206Z,30.23
2018-03-17T13:18:58.558Z,29.17
2018-03-17T13:21:26.873Z,28.90
2018-03-17T13:23:55.218Z,28.70
2018-03-17T13:26:23.544Z,28.00
2018-03-17T13:28:51.944Z,29.17
2018-03-17T13:31:20.292Z,27.57
2018-03-17T13:33:48.636Z,26.73
2018-03-17T13:36:28.819Z,27.53
2018-03-17T13:38:57.157Z,26.20
2018-03-17T13:41:25.481Z,26.90
2018-03-17T13:43:53.810Z,27.27
2018-03-17T13:46:22.162Z,25.77
2018-03-17T13:48:50.506Z,27.57
2018-03-17T13:51:18.874Z,27.13
2018-03-17T13:53:47.227Z,26.63
2018-03-17T13:56:15.544Z,26.77
2018-03-17T13:58:43.924Z,25.23
2018-03-17T14:01:12.215Z,28.50
2018-03-17T14:03:40.590Z,25.97
2018-03-17T14:06:08.906Z,24.60
2018-03-17T14:08:37.271Z,26.17
2018-03-17T14:11:05.599Z,27.20
2018-03-17T14:13:34.007Z,25.37
2018-03-17T14:16:02.387Z,25.37
2018-03-17T14:18:30.730Z,24.60
2018-03-17T14:20:59.142Z,25.20
2018-03-17T14:23:27.476Z,25.80
2018-03-17T14:25:56.792Z,26.90
2018-03-17T14:28:25.113Z,27.60
2018-03-17T14:30:53.481Z,26.13
2018-03-17T14:33:21.987Z,24.67
2018-03-17T14:35:50.731Z,25.47
2018-03-17T14:38:19.150Z,24.43
2018-03-17T14:40:47.519Z,26.00
2018-03-17T14:43:15.883Z,24.33
2018-03-17T14:45:44.264Z,24.67
2018-03-17T14:48:12.627Z,25.47
2018-03-17T14:50:40.963Z,24.10
2018-03-17T14:53:09.404Z,24.57
2018-03-17T14:55:37.718Z,23.33
2018-03-17T14:58:06.111Z,22.80
2018-03-17T15:00:34.522Z,24.67
2018-03-17T15:03:02.847Z,22.83
2018-03-17T15:05:31.170Z,23.90
2018-03-17T15:07:59.554Z,24.60
2018-03-17T15:10:27.888Z,23.97
2018-03-17T15:12:56.304Z,23.87
2018-03-17T15:15:24.630Z,23.97
2018-03-17T15:17:52.958Z,24.50
2018-03-17T15:20:21.296Z,22.97
2018-03-17T15:22:49.720Z,24.37
2018-03-17T15:25:18.167Z,25.10
2018-03-17T15:27:46.507Z,24.13
2018-03-17T15:30:14.855Z,24.27
2018-03-17T15:32:43.184Z,23.03
2018-03-17T15:35:11.539Z,22.67
2018-03-17T15:37:39.869Z,22.77
2018-03-17T15:40:08.212Z,24.50
2018-03-17T15:42:36.516Z,22.27
2018-03-17T15:45:05.755Z,23.50
2018-03-17T15:47:34.116Z,25.27
2018-03-17T15:50:02.492Z,23.60
2018-03-17T15:52:30.810Z,24.13
2018-03-17T15:54:59.166Z,23.30
2018-03-17T15:57:27.531Z,23.90
2018-03-17T15:59:55.919Z,23.00
2018-03-17T16:02:25.002Z,24.10
2018-03-17T16:04:53.342Z,23.70
2018-03-17T16:07:22.356Z,20.73
2018-03-17T16:09:50.754Z,23.40
2018-03-17T16:12:19.098Z,23.23
2018-03-17T16:14:47.416Z,21.60
2018-03-17T16:17:15.763Z,21.90
2018-03-17T16:19:44.187Z,24.07
2018-03-17T16:22:12.504Z,22.93
2018-03-17T16:24:40.863Z,22.20
2018-03-17T16:27:09.295Z,22.20
2018-03-17T16:29:37.625Z,22.97
2018-03-17T16:32:05.947Z,21.20
2018-03-17T16:34:34.271Z,21.43
2018-03-17T16:37:02.607Z,21.03
2018-03-17T16:39:30.936Z,21.23
2018-03-17T16:41:59.292Z,21.00
2018-03-17T16:44:27.637Z,21.70
2018-03-17T16:46:56.025Z,21.20
2018-03-17T16:49:24.350Z,23.73
2018-03-17T16:51:52.722Z,22.10
2018-03-17T16:54:21.015Z,21.60
2018-03-17T16:56:49.348Z,22.07
2018-03-17T16:59:17.692Z,21.07
2018-03-17T17:01:46.019Z,22.50
2018-03-17T17:04:14.327Z,21.63
2018-03-17T17:06:43.676Z,21.03
2018-03-17T17:09:12.041Z,22.73
2018-03-17T17:11:40.383Z,22.33
2018-03-17T17:14:08.694Z,21.30
2018-03-17T17:16:37.073Z,21.37
2018-03-17T17:19:05.385Z,20.93
2018-03-17T17:21:33.719Z,22.57
2018-03-17T17:24:02.058Z,21.97
2018-03-17T17:26:30.498Z,21.37
2018-03-17T17:28:58.872Z,22.03
2018-03-17T17:31:27.254Z,23.10
2018-03-17T17:33:55.576Z,21.83
2018-03-17T17:36:23.910Z,21.67
2018-03-17T17:38:52.277Z,22.17
2018-03-17T17:41:20.659Z,22.33
2018-03-17T17:43:49.052Z,23.70
2018-03-17T17:46:17.498Z,21.93
2018-03-17T17:48:45.879Z,23.33
2018-03-17T17:51:14.212Z,22.50
2018-03-17T17:53:42.547Z,21.43
2018-03-17T17:56:11.025Z,21.60
2018-03-17T17:58:39.398Z,22.20
2018-03-17T18:01:07.741Z,23.43
2018-03-17T18:03:36.160Z,22.53
2018-03-17T18:06:04.468Z,22.50
2018-03-17T18:08:32.810Z,24.20
2018-03-17T18:11:01.191Z,22.60
2018-03-17T18:13:29.567Z,23.30
2018-03-17T18:15:57.892Z,23.27
2018-03-17T18:18:26.334Z,22.57
2018-03-17T18:20:54.714Z,23.87
2018-03-17T18:23:23.091Z,22.83
2018-03-17T18:25:51.415Z,21.07
2018-03-17T18:28:19.843Z,23.90
2018-03-17T18:30:48.183Z,23.47
2018-03-17T18:33:16.528Z,23.10
2018-03-17T18:35:44.859Z,22.93
2018-03-17T18:38:13.205Z,24.17
2018-03-17T18:40:41.515Z,23.53
2018-03-17T18:43:09.906Z,22.67
2018-03-17T18:45:38.227Z,22.23
2018-03-17T18:48:06.596Z,22.13
2018-03-17T18:50:34.934Z,22.33
2018-03-17T18:53:03.280Z,23.67
2018-03-17T18:55:31.696Z,22.70
2018-03-17T18:58:00.028Z,21.83
2018-03-17T19:00:28.368Z,23.13
2018-03-17T19:02:56.687Z,22.77
2018-03-17T19:05:25.103Z,23.47
2018-03-17T19:07:53.512Z,23.10
2018-03-17T19:10:21.959Z,24.77
2018-03-17T19:12:50.335Z,24.20
2018-03-17T19:15:18.671Z,23.17
2018-03-17T19:17:47.066Z,22.33
2018-03-17T19:20:15.474Z,22.10
2018-03-17T19:22:43.805Z,22.63
2018-03-17T19:25:12.238Z,23.60
2018-03-17T19:27:40.562Z,22.00
2018-03-17T19:30:08.896Z,25.07
2018-03-17T19:32:37.246Z,24.60
2018-03-17T19:35:05.653Z,23.87
2018-03-17T19:37:34.020Z,23.47
2018-03-17T19:40:02.375Z,22.33
2018-03-17T19:42:30.703Z,21.30
2018-03-17T19:44:59.047Z,22.13
2018-03-17T19:47:27.371Z,22.20
2018-03-17T19:49:55.715Z,22.53
2018-03-17T19:52:24.071Z,20.93
2018-03-17T19:54:52.390Z,22.30
2018-03-17T19:57:20.707Z,20.93
2018-03-17T19:59:49.234Z,23.57
2018-03-17T20:02:17.564Z,22.10
2018-03-17T20:04:45.986Z,21.20
2018-03-17T20:07:14.340Z,20.50
2018-03-17T20:09:42.698Z,24.10
2018-03-17T20:12:11.034Z,20.63
2018-03-17T20:14:39.353Z,21.03
2018-03-17T20:17:07.684Z,22.10
2018-03-17T20:19:36.015Z,22.13
2018-03-17T20:22:04.354Z,22.47
2018-03-17T20:24:32.703Z,22.47
2018-03-17T20:27:01.048Z,20.17
2018-03-17T20:29:29.469Z,22.63
2018-03-17T20:31:57.885Z,21.90
2018-03-17T20:34:26.278Z,21.20
2018-03-17T20:36:54.635Z,21.43
2018-03-17T20:39:23.071Z,22.20
2018-03-17T20:41:51.450Z,22.50
2018-03-17T20:44:19.830Z,21.07
2018-03-17T20:46:48.156Z,22.67
2018-03-17T20:49:16.491Z,22.23
2018-03-17T20:51:44.837Z,22.73
2018-03-17T20:54:13.251Z,24.30
2018-03-17T20:56:41.601Z,22.83
2018-03-17T20:59:10.009Z,23.00
2018-03-17T21:01:38.343Z,24.33
2018-03-17T21:04:06.782Z,24.17
2018-03-17T21:06:35.122Z,21.80
2018-03-17T21:09:03.486Z,24.10
2018-03-17T21:11:31.794Z,24.50
2018-03-17T21:14:00.118Z,24.10
2018-03-17T21:16:28.538Z,25.47
2018-03-17T21:18:56.884Z,26.60
2018-03-17T21:21:25.227Z,25.63
2018-03-17T21:23:53.575Z,24.70
2018-03-17T21:26:21.897Z,24.60
2018-03-17T21:28:50.223Z,26.23
2018-03-17T21:31:18.566Z,24.20
2018-03-17T21:33:47.138Z,23.17
2018-03-17T21:36:15.459Z,24.00
2018-03-17T21:38:43.797Z,25.43
2018-03-17T21:41:12.111Z,25.80
2018-03-17T21:43:40.443Z,26.00
2018-03-17T21:46:08.847Z,23.33
2018-03-17T21:48:37.166Z,24.40
2018-03-17T21:51:05.504Z,25.00
2018-03-17T21:53:33.914Z,23.93
2018-03-17T21:56:02.282Z,21.90
2018-03-17T21:58:30.640Z,24.73
2018-03-17T22:00:58.984Z,24.37
2018-03-17T22:03:27.338Z,25.90
2018-03-17T22:05:55.673Z,25.20
2018-03-17T22:08:23.995Z,25.77
2018-03-17T22:10:52.338Z,24.87
2018-03-17T22:13:20.651Z,25.40
2018-03-17T22:15:49.009Z,26.17
2018-03-17T22:18:17.351Z,26.93
2018-03-17T22:20:45.670Z,27.03
2018-03-17T22:23:14.031Z,27.27
2018-03-17T22:25:42.414Z,28.67
2018-03-17T22:28:10.758Z,26.20
2018-03-17T22:30:39.074Z,29.03
2018-03-17T22:33:07.450Z,28.17
2018-03-17T22:35:35.776Z,28.27
2018-03-17T22:38:05.117Z,28.50
2018-03-17T22:40:33.430Z,28.33
2018-03-17T22:43:01.784Z,30.40
2018-03-17T22:45:30.163Z,29.73
2018-03-17T22:47:58.572Z,29.80
2018-03-17T22:50:26.895Z,28.07
2018-03-17T22:52:55.248Z,29.63
2018-03-17T22:55:23.567Z,30.30
2018-03-17T22:57:51.947Z,31.30
2018-03-17T23:00:20.286Z,29.40
2018-03-17T23:02:48.623Z,29.90
2018-03-17T23:05:16.954Z,32.20
2018-03-17T23:07:45.285Z,29.93
2018-03-17T23:10:14.804Z,29.33
2018-03-17T23:12:43.138Z,31.03
2018-03-17T23:15:11.457Z,30.20
2018-03-17T23:17:39.789Z,28.33
2018-03-17T23:20:08.103Z,29.80
2018-03-17T23:22:36.438Z,27.90
2018-03-17T23:25:04.831Z,28.63
2018-03-17T23:27:33.156Z,28.60
2018-03-17T23:30:01.551Z,30.20
2018-03-17T23:32:29.878Z,30.43
2018-03-17T23:34:58.259Z,28.80
2018-03-17T23:37:26.585Z,29.50
2018-03-17T23:39:54.931Z,29.63
2018-03-17T23:42:23.275Z,30.00
2018-03-17T23:44:51.638Z,30.00
2018-03-17T23:47:19.970Z,29.40
2018-03-17T23:49:48.318Z,31.27
2018-03-17T23:52:16.650Z,30.10
2018-03-17T23:54:44.977Z,29.37
2018-03-17T23:57:13.322Z,26.73
2018-03-17T23:59:41.658Z,29.87
